sensor_id;sensor_type;location;lat;lon;timestamp;pressure;altitude;pressure_sealevel;temperature;humidity
71465;BME280;59274;49.874;9.154;2023-07-20T00:00:34;100042.34;;;16.50;100.00
71465;BME280;59274;49.874;9.154;2023-07-20T00:03:13;100049.78;;;16.50;100.00
71465;BME280;59274;49.874;9.154;2023-07-20T00:05:45;100044.66;;;16.52;100.00
71465;BME280;59274;49.874;9.154;2023-07-20T00:08:11;100040.44;;;16.47;100.00
71465;BME280;59274;49.874;9.154;2023-07-20T00:10:36;100053.19;;;16.57;100.00
71465;BME280;59274;49.874;9.154;2023-07-20T00:13:02;100049.66;;;16.57;100.00
71465;BME280;59274;49.874;9.154;2023-07-20T00:15:27;100052.19;;;16.48;100.00
71465;BME280;59274;49.874;9.154;2023-07-20T00:17:53;100057.22;;;16.49;100.00
71465;BME280;59274;49.874;9.154;2023-07-20T00:20:19;100054.16;;;16.47;100.00
71465;BME280;59274;49.874;9.154;2023-07-20T00:22:44;100050.56;;;16.50;100.00
71465;BME280;59274;49.874;9.154;2023-07-20T00:25:09;100059.44;;;16.58;100.00
71465;BME280;59274;49.874;9.154;2023-07-20T00:27:37;100057.19;;;16.53;100.00
71465;BME280;59274;49.874;9.154;2023-07-20T00:30:03;100065.03;;;16.51;100.00
71465;BME280;59274;49.874;9.154;2023-07-20T00:32:29;100060.53;;;16.40;100.00
71465;BME280;59274;49.874;9.154;2023-07-20T00:34:54;100060.81;;;16.46;100.00
71465;BME280;59274;49.874;9.154;2023-07-20T00:37:20;100058.84;;;16.47;100.00
71465;BME280;59274;49.874;9.154;2023-07-20T00:39:45;100060.63;;;16.57;100.00
71465;BME280;59274;49.874;9.154;2023-07-20T00:42:11;100060.22;;;16.62;100.00
71465;BME280;59274;49.874;9.154;2023-07-20T00:44:36;100061.69;;;16.66;100.00
71465;BME280;59274;49.874;9.154;2023-07-20T00:47:02;100067.84;;;16.74;100.00
71465;BME280;59274;49.874;9.154;2023-07-20T00:49:27;100066.28;;;16.73;100.00
71465;BME280;59274;49.874;9.154;2023-07-20T00:51:53;100065.50;;;16.72;100.00
71465;BME280;59274;49.874;9.154;2023-07-20T00:54:18;100062.38;;;16.70;100.00
71465;BME280;59274;49.874;9.154;2023-07-20T00:56:44;100069.09;;;16.69;100.00
71465;BME280;59274;49.874;9.154;2023-07-20T00:59:10;100066.34;;;16.69;100.00
71465;BME280;59274;49.874;9.154;2023-07-20T01:01:35;100069.22;;;16.62;100.00
71465;BME280;59274;49.874;9.154;2023-07-20T01:04:01;100066.88;;;16.57;100.00
71465;BME280;59274;49.874;9.154;2023-07-20T01:09:23;100064.50;;;16.59;100.00
71465;BME280;59274;49.874;9.154;2023-07-20T01:14:29;100075.88;;;16.61;100.00
71465;BME280;59274;49.874;9.154;2023-07-20T01:16:55;100083.34;;;16.61;100.00
71465;BME280;59274;49.874;9.154;2023-07-20T01:19:20;100073.94;;;16.58;100.00
71465;BME280;59274;49.874;9.154;2023-07-20T01:22:08;100079.91;;;16.53;100.00
71465;BME280;59274;49.874;9.154;2023-07-20T01:30:14;100079.94;;;16.50;100.00
71465;BME280;59274;49.874;9.154;2023-07-20T01:32:42;100081.50;;;16.51;100.00
71465;BME280;59274;49.874;9.154;2023-07-20T01:35:11;100074.56;;;16.42;100.00
71465;BME280;59274;49.874;9.154;2023-07-20T01:37:41;100076.00;;;16.51;100.00
71465;BME280;59274;49.874;9.154;2023-07-20T01:40:08;100076.97;;;16.40;100.00
71465;BME280;59274;49.874;9.154;2023-07-20T01:42:34;100075.03;;;16.37;100.00
71465;BME280;59274;49.874;9.154;2023-07-20T01:45:00;100075.53;;;16.32;100.00
71465;BME280;59274;49.874;9.154;2023-07-20T01:47:25;100075.03;;;16.37;100.00
71465;BME280;59274;49.874;9.154;2023-07-20T01:49:51;100083.69;;;16.36;100.00
71465;BME280;59274;49.874;9.154;2023-07-20T01:52:16;100085.75;;;16.28;100.00
71465;BME280;59274;49.874;9.154;2023-07-20T01:54:41;100088.81;;;16.34;100.00
71465;BME280;59274;49.874;9.154;2023-07-20T01:57:07;100079.38;;;16.35;100.00
71465;BME280;59274;49.874;9.154;2023-07-20T01:59:32;100073.72;;;16.22;100.00
71465;BME280;59274;49.874;9.154;2023-07-20T02:01:58;100086.63;;;16.22;100.00
71465;BME280;59274;49.874;9.154;2023-07-20T02:04:23;100089.13;;;16.13;100.00
71465;BME280;59274;49.874;9.154;2023-07-20T02:06:48;100088.75;;;16.11;100.00
71465;BME280;59274;49.874;9.154;2023-07-20T02:09:14;100082.13;;;16.08;100.00
71465;BME280;59274;49.874;9.154;2023-07-20T02:11:39;100082.03;;;16.15;100.00
71465;BME280;59274;49.874;9.154;2023-07-20T02:14:05;100087.31;;;16.02;100.00
71465;BME280;59274;49.874;9.154;2023-07-20T02:16:30;100082.59;;;16.03;100.00
71465;BME280;59274;49.874;9.154;2023-07-20T02:18:55;100079.13;;;15.99;100.00
71465;BME280;59274;49.874;9.154;2023-07-20T02:21:22;100080.38;;;15.94;100.00
71465;BME280;59274;49.874;9.154;2023-07-20T02:23:48;100078.88;;;15.90;100.00
71465;BME280;59274;49.874;9.154;2023-07-20T02:26:13;100080.53;;;15.84;100.00
71465;BME280;59274;49.874;9.154;2023-07-20T02:28:39;100080.66;;;15.73;100.00
71465;BME280;59274;49.874;9.154;2023-07-20T02:31:04;100091.97;;;15.75;100.00
71465;BME280;59274;49.874;9.154;2023-07-20T02:33:32;100087.38;;;15.69;100.00
71465;BME280;59274;49.874;9.154;2023-07-20T02:35:58;100090.41;;;15.74;100.00
71465;BME280;59274;49.874;9.154;2023-07-20T02:38:23;100093.63;;;15.69;100.00
71465;BME280;59274;49.874;9.154;2023-07-20T02:40:52;100088.50;;;15.71;100.00
71465;BME280;59274;49.874;9.154;2023-07-20T02:43:17;100088.00;;;15.80;100.00
71465;BME280;59274;49.874;9.154;2023-07-20T02:45:43;100087.50;;;15.88;100.00
71465;BME280;59274;49.874;9.154;2023-07-20T02:48:08;100094.47;;;15.93;100.00
71465;BME280;59274;49.874;9.154;2023-07-20T02:50:34;100099.16;;;15.92;100.00
71465;BME280;59274;49.874;9.154;2023-07-20T02:53:01;100102.66;;;15.96;100.00
71465;BME280;59274;49.874;9.154;2023-07-20T02:55:26;100100.00;;;15.89;100.00
71465;BME280;59274;49.874;9.154;2023-07-20T02:57:52;100108.22;;;15.89;100.00
71465;BME280;59274;49.874;9.154;2023-07-20T03:00:17;100099.63;;;15.87;100.00
71465;BME280;59274;49.874;9.154;2023-07-20T03:02:44;100099.72;;;15.80;100.00
71465;BME280;59274;49.874;9.154;2023-07-20T03:05:13;100101.28;;;15.81;100.00
71465;BME280;59274;49.874;9.154;2023-07-20T03:07:38;100101.28;;;15.81;100.00
71465;BME280;59274;49.874;9.154;2023-07-20T03:10:05;100099.00;;;15.76;100.00
71465;BME280;59274;49.874;9.154;2023-07-20T03:12:32;100097.84;;;15.74;100.00
71465;BME280;59274;49.874;9.154;2023-07-20T03:14:59;100097.53;;;15.68;100.00
71465;BME280;59274;49.874;9.154;2023-07-20T03:17:24;100105.19;;;15.84;100.00
71465;BME280;59274;49.874;9.154;2023-07-20T03:19:50;100104.84;;;15.78;100.00
71465;BME280;59274;49.874;9.154;2023-07-20T03:22:15;100115.34;;;15.83;100.00
71465;BME280;59274;49.874;9.154;2023-07-20T03:24:41;100106.34;;;15.83;100.00
71465;BME280;59274;49.874;9.154;2023-07-20T03:27:06;100107.47;;;15.85;100.00
71465;BME280;59274;49.874;9.154;2023-07-20T03:29:32;100114.41;;;15.93;100.00
71465;BME280;59274;49.874;9.154;2023-07-20T03:31:58;100117.25;;;15.86;100.00
71465;BME280;59274;49.874;9.154;2023-07-20T03:34:24;100120.00;;;15.86;100.00
71465;BME280;59274;49.874;9.154;2023-07-20T03:36:50;100119.28;;;15.82;100.00
71465;BME280;59274;49.874;9.154;2023-07-20T03:39:15;100110.78;;;15.73;100.00
71465;BME280;59274;49.874;9.154;2023-07-20T03:41:41;100111.94;;;15.72;100.00
71465;BME280;59274;49.874;9.154;2023-07-20T03:44:06;100121.78;;;15.70;100.00
71465;BME280;59274;49.874;9.154;2023-07-20T03:46:32;100111.69;;;15.63;100.00
71465;BME280;59274;49.874;9.154;2023-07-20T03:48:59;100126.97;;;15.60;100.00
71465;BME280;59274;49.874;9.154;2023-07-20T03:51:26;100131.34;;;15.54;100.00
71465;BME280;59274;49.874;9.154;2023-07-20T03:53:51;100121.94;;;15.55;100.00
71465;BME280;59274;49.874;9.154;2023-07-20T03:56:16;100124.25;;;15.57;100.00
71465;BME280;59274;49.874;9.154;2023-07-20T03:58:42;100122.66;;;15.59;100.00
71465;BME280;59274;49.874;9.154;2023-07-20T04:01:07;100129.72;;;15.57;100.00
71465;BME280;59274;49.874;9.154;2023-07-20T04:03:35;100134.41;;;15.56;100.00
71465;BME280;59274;49.874;9.154;2023-07-20T04:06:00;100132.84;;;15.59;100.00
71465;BME280;59274;49.874;9.154;2023-07-20T04:08:26;100133.66;;;15.52;100.00
71465;BME280;59274;49.874;9.154;2023-07-20T04:10:52;100143.13;;;15.48;100.00
71465;BME280;59274;49.874;9.154;2023-07-20T04:13:18;100141.88;;;15.52;100.00
71465;BME280;59274;49.874;9.154;2023-07-20T04:15:43;100138.78;;;15.54;100.00
71465;BME280;59274;49.874;9.154;2023-07-20T04:18:09;100150.50;;;15.54;100.00
71465;BME280;59274;49.874;9.154;2023-07-20T04:20:34;100146.94;;;15.57;100.00
71465;BME280;59274;49.874;9.154;2023-07-20T04:23:00;100153.19;;;15.58;100.00
71465;BME280;59274;49.874;9.154;2023-07-20T04:25:25;100147.34;;;15.56;100.00
71465;BME280;59274;49.874;9.154;2023-07-20T04:27:51;100147.31;;;15.59;100.00
71465;BME280;59274;49.874;9.154;2023-07-20T04:30:20;100141.50;;;15.54;100.00
71465;BME280;59274;49.874;9.154;2023-07-20T04:32:48;100143.00;;;15.58;100.00
71465;BME280;59274;49.874;9.154;2023-07-20T04:35:44;100155.56;;;15.56;100.00
71465;BME280;59274;49.874;9.154;2023-07-20T04:38:03;100145.44;;;15.53;100.00
71465;BME280;59274;49.874;9.154;2023-07-20T04:40:28;100150.09;;;15.56;100.00
71465;BME280;59274;49.874;9.154;2023-07-20T04:42:53;100150.50;;;15.51;100.00
71465;BME280;59274;49.874;9.154;2023-07-20T04:45:19;100151.75;;;15.43;100.00
71465;BME280;59274;49.874;9.154;2023-07-20T04:47:44;100156.44;;;15.42;100.00
71465;BME280;59274;49.874;9.154;2023-07-20T04:50:10;100155.19;;;15.50;100.00
71465;BME280;59274;49.874;9.154;2023-07-20T04:52:35;100157.56;;;15.48;100.00
71465;BME280;59274;49.874;9.154;2023-07-20T04:55:00;100144.63;;;15.52;100.00
71465;BME280;59274;49.874;9.154;2023-07-20T04:57:26;100144.94;;;15.61;100.00
71465;BME280;59274;49.874;9.154;2023-07-20T04:59:52;100145.28;;;15.67;100.00
71465;BME280;59274;49.874;9.154;2023-07-20T05:02:17;100144.81;;;15.72;100.00
71465;BME280;59274;49.874;9.154;2023-07-20T05:04:43;100145.88;;;15.82;100.00
71465;BME280;59274;49.874;9.154;2023-07-20T05:07:08;100154.47;;;15.84;100.00
71465;BME280;59274;49.874;9.154;2023-07-20T05:09:33;100148.84;;;15.94;100.00
71465;BME280;59274;49.874;9.154;2023-07-20T05:11:59;100150.34;;;15.99;100.00
71465;BME280;59274;49.874;9.154;2023-07-20T05:14:24;100153.47;;;16.01;100.00
71465;BME280;59274;49.874;9.154;2023-07-20T05:16:50;100146.78;;;16.05;100.00
71465;BME280;59274;49.874;9.154;2023-07-20T05:19:15;100147.03;;;16.15;100.00
71465;BME280;59274;49.874;9.154;2023-07-20T05:21:41;100150.06;;;16.20;100.00
71465;BME280;59274;49.874;9.154;2023-07-20T05:24:06;100146.03;;;16.28;100.00
71465;BME280;59274;49.874;9.154;2023-07-20T05:26:32;100147.13;;;16.34;100.00
71465;BME280;59274;49.874;9.154;2023-07-20T05:28:59;100147.47;;;16.40;100.00
71465;BME280;59274;49.874;9.154;2023-07-20T05:31:25;100149.03;;;16.41;100.00
71465;BME280;59274;49.874;9.154;2023-07-20T05:33:51;100151.28;;;16.46;100.00
71465;BME280;59274;49.874;9.154;2023-07-20T05:36:17;100148.06;;;16.51;100.00
71465;BME280;59274;49.874;9.154;2023-07-20T05:38:42;100152.38;;;16.52;100.00
71465;BME280;59274;49.874;9.154;2023-07-20T05:41:07;100153.44;;;16.62;100.00
71465;BME280;59274;49.874;9.154;2023-07-20T05:43:35;100150.31;;;16.60;100.00
71465;BME280;59274;49.874;9.154;2023-07-20T05:46:01;100149.47;;;16.63;100.00
71465;BME280;59274;49.874;9.154;2023-07-20T05:48:26;100156.91;;;16.66;100.00
71465;BME280;59274;49.874;9.154;2023-07-20T05:50:51;100147.06;;;16.68;100.00
71465;BME280;59274;49.874;9.154;2023-07-20T05:53:17;100156.41;;;16.71;100.00
71465;BME280;59274;49.874;9.154;2023-07-20T05:55:42;100157.94;;;16.75;100.00
71465;BME280;59274;49.874;9.154;2023-07-20T05:58:08;100160.09;;;16.88;100.00
71465;BME280;59274;49.874;9.154;2023-07-20T06:00:33;100168.50;;;17.00;100.00
71465;BME280;59274;49.874;9.154;2023-07-20T06:02:58;100173.38;;;17.12;100.00
71465;BME280;59274;49.874;9.154;2023-07-20T06:05:24;100171.25;;;17.23;100.00
71465;BME280;59274;49.874;9.154;2023-07-20T06:07:50;100178.69;;;17.46;100.00
71465;BME280;59274;49.874;9.154;2023-07-20T06:10:15;100177.59;;;17.64;100.00
71465;BME280;59274;49.874;9.154;2023-07-20T06:12:41;100184.16;;;17.89;100.00
71465;BME280;59274;49.874;9.154;2023-07-20T06:15:24;100190.69;;;18.15;100.00
71465;BME280;59274;49.874;9.154;2023-07-20T06:17:50;100192.63;;;18.34;98.98
71465;BME280;59274;49.874;9.154;2023-07-20T06:20:15;100191.84;;;18.54;98.27
71465;BME280;59274;49.874;9.154;2023-07-20T06:22:41;100195.44;;;18.51;97.76
71465;BME280;59274;49.874;9.154;2023-07-20T06:25:06;100185.59;;;18.33;99.07
71465;BME280;59274;49.874;9.154;2023-07-20T06:27:32;100188.69;;;18.35;98.00
71465;BME280;59274;49.874;9.154;2023-07-20T06:29:57;100193.00;;;18.36;99.40
71465;BME280;59274;49.874;9.154;2023-07-20T06:32:23;100191.28;;;18.43;98.17
71465;BME280;59274;49.874;9.154;2023-07-20T06:34:48;100188.38;;;18.50;98.92
71465;BME280;59274;49.874;9.154;2023-07-20T06:37:14;100193.75;;;18.57;98.48
71465;BME280;59274;49.874;9.154;2023-07-20T06:39:39;100193.94;;;18.66;96.19
71465;BME280;59274;49.874;9.154;2023-07-20T06:42:05;100188.44;;;18.66;98.01
71465;BME280;59274;49.874;9.154;2023-07-20T06:44:30;100193.19;;;18.82;97.47
71465;BME280;59274;49.874;9.154;2023-07-20T06:46:56;100196.56;;;18.89;96.43
71465;BME280;59274;49.874;9.154;2023-07-20T06:49:26;100201.72;;;19.03;95.16
71465;BME280;59274;49.874;9.154;2023-07-20T06:51:51;100199.47;;;19.14;96.38
71465;BME280;59274;49.874;9.154;2023-07-20T06:54:17;100196.19;;;19.20;91.80
71465;BME280;59274;49.874;9.154;2023-07-20T06:56:42;100201.09;;;19.28;93.52
71465;BME280;59274;49.874;9.154;2023-07-20T06:59:08;100197.91;;;19.13;89.90
71465;BME280;59274;49.874;9.154;2023-07-20T07:01:33;100199.09;;;19.45;90.10
71465;BME280;59274;49.874;9.154;2023-07-20T07:03:58;100201.50;;;19.59;90.13
71465;BME280;59274;49.874;9.154;2023-07-20T07:06:24;100205.41;;;19.74;88.71
71465;BME280;59274;49.874;9.154;2023-07-20T07:08:49;100202.91;;;19.80;87.53
71465;BME280;59274;49.874;9.154;2023-07-20T07:11:15;100208.63;;;19.57;88.09
71465;BME280;59274;49.874;9.154;2023-07-20T07:13:40;100202.34;;;19.56;88.51
71465;BME280;59274;49.874;9.154;2023-07-20T07:16:06;100208.44;;;19.64;86.07
71465;BME280;59274;49.874;9.154;2023-07-20T07:18:31;100209.53;;;19.53;86.67
71465;BME280;59274;49.874;9.154;2023-07-20T07:20:57;100208.63;;;19.57;87.31
71465;BME280;59274;49.874;9.154;2023-07-20T07:23:22;100207.44;;;19.58;88.33
71465;BME280;59274;49.874;9.154;2023-07-20T07:25:48;100206.06;;;19.49;87.76
71465;BME280;59274;49.874;9.154;2023-07-20T07:28:13;100218.38;;;19.45;86.91
71465;BME280;59274;49.874;9.154;2023-07-20T07:30:39;100221.63;;;19.40;87.66
71465;BME280;59274;49.874;9.154;2023-07-20T07:33:05;100220.47;;;19.25;89.85
71465;BME280;59274;49.874;9.154;2023-07-20T07:35:30;100220.97;;;19.36;90.54
71465;BME280;59274;49.874;9.154;2023-07-20T07:37:55;100218.81;;;19.27;90.08
71465;BME280;59274;49.874;9.154;2023-07-20T07:40:21;100211.75;;;19.42;90.52
71465;BME280;59274;49.874;9.154;2023-07-20T07:42:46;100213.13;;;19.50;88.58
71465;BME280;59274;49.874;9.154;2023-07-20T07:45:12;100204.69;;;19.58;88.57
71465;BME280;59274;49.874;9.154;2023-07-20T07:47:39;100212.25;;;19.82;85.62
71465;BME280;59274;49.874;9.154;2023-07-20T07:50:05;100215.94;;;19.92;85.86
71465;BME280;59274;49.874;9.154;2023-07-20T07:52:30;100222.97;;;20.22;84.26
71465;BME280;59274;49.874;9.154;2023-07-20T07:54:56;100217.06;;;20.36;84.12
71465;BME280;59274;49.874;9.154;2023-07-20T07:57:21;100212.13;;;20.44;82.19
71465;BME280;59274;49.874;9.154;2023-07-20T07:59:46;100222.72;;;20.45;82.93
71465;BME280;59274;49.874;9.154;2023-07-20T08:02:12;100224.53;;;20.23;83.70
71465;BME280;59274;49.874;9.154;2023-07-20T08:04:37;100228.56;;;20.06;83.39
71465;BME280;59274;49.874;9.154;2023-07-20T08:07:04;100225.84;;;19.89;84.21
71465;BME280;59274;49.874;9.154;2023-07-20T08:09:30;100226.53;;;19.65;84.55
71465;BME280;59274;49.874;9.154;2023-07-20T08:11:55;100221.13;;;19.45;85.59
71465;BME280;59274;49.874;9.154;2023-07-20T08:14:20;100227.84;;;19.44;87.58
71465;BME280;59274;49.874;9.154;2023-07-20T08:16:46;100234.31;;;19.53;85.39
71465;BME280;59274;49.874;9.154;2023-07-20T08:19:12;100228.44;;;19.68;85.73
71465;BME280;59274;49.874;9.154;2023-07-20T08:21:38;100223.09;;;19.89;83.93
71465;BME280;59274;49.874;9.154;2023-07-20T08:24:03;100220.19;;;20.09;83.49
71465;BME280;59274;49.874;9.154;2023-07-20T08:26:29;100221.28;;;20.12;81.59
71465;BME280;59274;49.874;9.154;2023-07-20T08:28:54;100220.84;;;20.01;84.08
71465;BME280;59274;49.874;9.154;2023-07-20T08:31:20;100224.03;;;20.12;83.71
71465;BME280;59274;49.874;9.154;2023-07-20T08:33:45;100221.19;;;20.15;82.41
71465;BME280;59274;49.874;9.154;2023-07-20T08:36:11;100220.97;;;20.10;81.66
71465;BME280;59274;49.874;9.154;2023-07-20T08:38:36;100215.56;;;20.19;81.37
71465;BME280;59274;49.874;9.154;2023-07-20T08:41:01;100213.97;;;20.47;81.67
71465;BME280;59274;49.874;9.154;2023-07-20T08:43:27;100212.38;;;20.75;81.82
71465;BME280;59274;49.874;9.154;2023-07-20T08:45:57;100205.28;;;20.74;79.29
71465;BME280;59274;49.874;9.154;2023-07-20T08:48:24;100209.16;;;20.63;79.44
71465;BME280;59274;49.874;9.154;2023-07-20T08:50:51;100217.09;;;20.61;79.05
71465;BME280;59274;49.874;9.154;2023-07-20T08:53:18;100221.34;;;20.24;78.00
71465;BME280;59274;49.874;9.154;2023-07-20T08:55:50;100232.97;;;20.03;78.85
71465;BME280;59274;49.874;9.154;2023-07-20T08:58:17;100217.94;;;19.91;80.41
71465;BME280;59274;49.874;9.154;2023-07-20T09:00:43;100216.91;;;19.85;79.10
71465;BME280;59274;49.874;9.154;2023-07-20T09:03:10;100216.13;;;20.14;79.43
71465;BME280;59274;49.874;9.154;2023-07-20T09:05:36;100203.03;;;20.30;79.34
71465;BME280;59274;49.874;9.154;2023-07-20T09:08:01;100210.03;;;20.48;76.71
71465;BME280;59274;49.874;9.154;2023-07-20T09:10:30;100207.81;;;20.55;77.19
71465;BME280;59274;49.874;9.154;2023-07-20T09:12:56;100200.00;;;20.79;77.51
71465;BME280;59274;49.874;9.154;2023-07-20T09:15:22;100211.78;;;21.18;76.84
71465;BME280;59274;49.874;9.154;2023-07-20T09:17:49;100204.84;;;21.47;73.97
71465;BME280;59274;49.874;9.154;2023-07-20T09:20:18;100204.94;;;21.57;71.86
71465;BME280;59274;49.874;9.154;2023-07-20T09:22:44;100199.03;;;21.67;71.17
71465;BME280;59274;49.874;9.154;2023-07-20T09:27:38;100209.06;;;21.52;69.60
71465;BME280;59274;49.874;9.154;2023-07-20T09:30:04;100211.03;;;21.52;68.74
71465;BME280;59274;49.874;9.154;2023-07-20T09:32:38;100204.91;;;21.35;70.24
71465;BME280;59274;49.874;9.154;2023-07-20T09:35:04;100204.34;;;21.27;71.61
71465;BME280;59274;49.874;9.154;2023-07-20T09:37:33;100201.59;;;21.27;71.78
71465;BME280;59274;49.874;9.154;2023-07-20T09:39:59;100201.13;;;21.41;71.64
71465;BME280;59274;49.874;9.154;2023-07-20T09:42:24;100196.31;;;21.55;70.24
71465;BME280;59274;49.874;9.154;2023-07-20T09:44:52;100187.72;;;21.74;69.11
71465;BME280;59274;49.874;9.154;2023-07-20T09:47:24;100196.41;;;21.64;64.88
71465;BME280;59274;49.874;9.154;2023-07-20T09:49:57;100193.94;;;22.00;65.58
71465;BME280;59274;49.874;9.154;2023-07-20T09:52:24;100190.88;;;21.85;65.60
71465;BME280;59274;49.874;9.154;2023-07-20T09:54:50;100190.56;;;22.05;66.44
71465;BME280;59274;49.874;9.154;2023-07-20T09:57:15;100189.69;;;22.08;67.07
71465;BME280;59274;49.874;9.154;2023-07-20T09:59:41;100187.06;;;21.92;67.92
71465;BME280;59274;49.874;9.154;2023-07-20T10:02:12;100187.03;;;22.05;66.30
71465;BME280;59274;49.874;9.154;2023-07-20T10:04:43;100187.38;;;22.38;66.41
71465;BME280;59274;49.874;9.154;2023-07-20T10:07:10;100184.13;;;22.30;66.30
71465;BME280;59274;49.874;9.154;2023-07-20T10:09:39;100175.88;;;22.17;67.61
71465;BME280;59274;49.874;9.154;2023-07-20T10:12:05;100175.59;;;22.15;68.04
71465;BME280;59274;49.874;9.154;2023-07-20T10:14:35;100178.59;;;21.86;66.09
71465;BME280;59274;49.874;9.154;2023-07-20T10:17:05;100176.72;;;21.83;64.73
71465;BME280;59274;49.874;9.154;2023-07-20T10:19:47;100183.88;;;21.94;64.43
71465;BME280;59274;49.874;9.154;2023-07-20T10:22:19;100187.41;;;21.94;64.36
71465;BME280;59274;49.874;9.154;2023-07-20T10:24:46;100182.34;;;22.14;64.68
71465;BME280;59274;49.874;9.154;2023-07-20T10:27:13;100180.91;;;22.41;65.05
71465;BME280;59274;49.874;9.154;2023-07-20T10:29:40;100175.16;;;22.57;63.83
71465;BME280;59274;49.874;9.154;2023-07-20T10:32:07;100169.94;;;22.59;63.78
71465;BME280;59274;49.874;9.154;2023-07-20T10:34:33;100175.19;;;22.66;59.79
71465;BME280;59274;49.874;9.154;2023-07-20T10:36:59;100162.38;;;22.50;62.54
71465;BME280;59274;49.874;9.154;2023-07-20T10:39:25;100150.41;;;22.62;62.92
71465;BME280;59274;49.874;9.154;2023-07-20T10:42:08;100160.03;;;22.80;63.55
71465;BME280;59274;49.874;9.154;2023-07-20T10:44:36;100148.00;;;22.74;63.24
71465;BME280;59274;49.874;9.154;2023-07-20T10:47:06;100150.66;;;22.86;63.85
71465;BME280;59274;49.874;9.154;2023-07-20T10:49:34;100148.53;;;22.99;61.66
71465;BME280;59274;49.874;9.154;2023-07-20T10:52:04;100151.81;;;23.43;62.38
71465;BME280;59274;49.874;9.154;2023-07-20T10:56:57;100137.16;;;23.70;59.31
71465;BME280;59274;49.874;9.154;2023-07-20T11:01:49;100140.69;;;23.89;59.97
71465;BME280;59274;49.874;9.154;2023-07-20T11:04:15;100136.94;;;24.19;59.22
71465;BME280;59274;49.874;9.154;2023-07-20T11:06:45;100139.69;;;24.19;56.50
71465;BME280;59274;49.874;9.154;2023-07-20T11:09:15;100141.69;;;24.19;55.56
71465;BME280;59274;49.874;9.154;2023-07-20T11:11:46;100138.91;;;24.10;55.63
71465;BME280;59274;49.874;9.154;2023-07-20T11:14:22;100127.97;;;24.57;54.18
71465;BME280;59274;49.874;9.154;2023-07-20T11:16:48;100129.19;;;24.24;53.49
71465;BME280;59274;49.874;9.154;2023-07-20T11:19:25;100132.47;;;24.22;54.74
71465;BME280;59274;49.874;9.154;2023-07-20T11:21:58;100129.75;;;23.76;55.21
71465;BME280;59274;49.874;9.154;2023-07-20T11:24:24;100127.63;;;23.71;54.75
71465;BME280;59274;49.874;9.154;2023-07-20T11:26:50;100127.81;;;23.50;54.71
71465;BME280;59274;49.874;9.154;2023-07-20T11:29:20;100121.78;;;23.60;53.06
71465;BME280;59274;49.874;9.154;2023-07-20T11:31:47;100127.16;;;23.64;53.75
71465;BME280;59274;49.874;9.154;2023-07-20T11:34:17;100122.03;;;23.80;53.44
71465;BME280;59274;49.874;9.154;2023-07-20T11:36:45;100122.66;;;23.75;52.48
71465;BME280;59274;49.874;9.154;2023-07-20T11:39:13;100123.00;;;23.59;53.13
71465;BME280;59274;49.874;9.154;2023-07-20T11:41:39;100126.84;;;23.43;53.55
71465;BME280;59274;49.874;9.154;2023-07-20T11:44:09;100133.00;;;23.29;54.93
71465;BME280;59274;49.874;9.154;2023-07-20T11:46:42;100126.69;;;23.01;55.08
71465;BME280;59274;49.874;9.154;2023-07-20T11:49:08;100125.13;;;22.91;54.94
71465;BME280;59274;49.874;9.154;2023-07-20T11:51:34;100128.19;;;23.02;55.07
71465;BME280;59274;49.874;9.154;2023-07-20T11:54:01;100124.34;;;23.09;54.64
71465;BME280;59274;49.874;9.154;2023-07-20T11:56:27;100123.63;;;23.09;54.32
71465;BME280;59274;49.874;9.154;2023-07-20T11:58:56;100127.63;;;23.44;53.88
71465;BME280;59274;49.874;9.154;2023-07-20T12:01:25;100127.16;;;23.73;53.85
71465;BME280;59274;49.874;9.154;2023-07-20T12:03:55;100121.44;;;23.76;53.26
71465;BME280;59274;49.874;9.154;2023-07-20T12:06:24;100120.22;;;23.68;52.90
71465;BME280;59274;49.874;9.154;2023-07-20T12:08:50;100113.25;;;24.42;50.93
71465;BME280;59274;49.874;9.154;2023-07-20T12:11:33;100109.28;;;24.91;49.33
71465;BME280;59274;49.874;9.154;2023-07-20T12:13:59;100110.72;;;25.25;50.24
71465;BME280;59274;49.874;9.154;2023-07-20T12:16:27;100108.34;;;25.32;49.76
71465;BME280;59274;49.874;9.154;2023-07-20T12:19:04;100098.75;;;25.33;49.22
71465;BME280;59274;49.874;9.154;2023-07-20T12:21:30;100088.56;;;25.69;48.53
71465;BME280;59274;49.874;9.154;2023-07-20T12:23:57;100095.34;;;25.97;47.00
71465;BME280;59274;49.874;9.154;2023-07-20T12:26:24;100100.00;;;26.50;45.36
71465;BME280;59274;49.874;9.154;2023-07-20T12:28:51;100099.25;;;26.35;43.95
71465;BME280;59274;49.874;9.154;2023-07-20T12:31:16;100090.09;;;25.70;46.01
71465;BME280;59274;49.874;9.154;2023-07-20T12:33:42;100082.47;;;26.84;46.71
71465;BME280;59274;49.874;9.154;2023-07-20T12:36:08;100076.59;;;26.62;44.97
71465;BME280;59274;49.874;9.154;2023-07-20T12:38:34;100081.16;;;25.81;45.82
71465;BME280;59274;49.874;9.154;2023-07-20T12:41:02;100078.59;;;25.24;47.61
71465;BME280;59274;49.874;9.154;2023-07-20T12:43:28;100077.03;;;24.37;48.82
71465;BME280;59274;49.874;9.154;2023-07-20T12:45:54;100082.63;;;24.18;48.44
71465;BME280;59274;49.874;9.154;2023-07-20T12:48:20;100074.78;;;24.74;48.63
71465;BME280;59274;49.874;9.154;2023-07-20T12:50:46;100075.41;;;25.69;45.81
71465;BME280;59274;49.874;9.154;2023-07-20T12:53:11;100062.31;;;25.46;48.44
71465;BME280;59274;49.874;9.154;2023-07-20T12:55:38;100058.69;;;25.55;47.27
71465;BME280;59274;49.874;9.154;2023-07-20T12:58:04;100060.19;;;25.26;46.90
71465;BME280;59274;49.874;9.154;2023-07-20T13:00:30;100059.59;;;25.22;47.04